Clovis ASC Data

Date Time Air Temperature Relative Humidity Dewpoint Windchill Heat Index Wind Speed Wind Dir. Rain Solar Radiation Soil Temperature Soil Temperature
2m 2m 3m 3m 5cm 10cm
US/Mountain F % F F F MPH deg in MJ/m^2 F F
max avg avg
2021-09-15 00:05:00 65.0 74.1 56.6 65.0 65.0 13.0 19.0 12.7 19.0 19.4 0.00 0.0000000 77.7 80.2
2021-09-15 00:10:00 64.6 75.4 56.7 64.6 64.6 9.7 17.8 11.6 347.7 25.2 0.00 0.0000000 77.6 80.1
2021-09-15 00:15:00 64.4 75.9 56.7 64.4 64.4 10.8 16.0 10.7 14.0 30.4 0.00 0.0000000 77.6 80.0
2021-09-15 00:20:00 64.5 76.1 56.8 64.5 64.5 6.3 16.7 9.4 93.8 34.9 0.00 0.0000000 77.5 80.0
2021-09-15 00:25:00 64.6 76.0 56.8 64.6 64.6 11.2 15.6 9.2 29.7 35.8 0.00 0.0000000 77.4 79.9
2021-09-15 00:30:00 64.2 78.0 57.2 64.2 64.2 14.9 16.7 11.0 345.6 28.0 0.00 0.0000000 77.3 79.8
2021-09-15 00:35:00 63.6 79.9 57.3 63.6 63.6 8.7 15.1 10.0 42.0 30.7 0.00 0.0000000 77.3 79.7
2021-09-15 00:40:00 63.2 82.2 57.7 63.2 63.2 10.6 12.1 9.3 58.5 37.8 0.00 0.0000000 77.2 79.7
2021-09-15 00:45:00 62.8 82.6 57.4 62.8 62.8 12.2 14.0 11.4 65.0 52.1 0.00 0.0000000 77.1 79.6
2021-09-15 00:50:00 62.8 82.6 57.4 62.8 62.8 10.5 16.5 12.5 46.5 51.2 0.00 0.0000000 77.0 79.6
2021-09-15 00:55:00 62.7 83.2 57.5 62.7 62.7 14.0 18.0 13.6 38.3 50.0 0.00 0.0000000 76.9 79.5
2021-09-15 01:00:00 62.5 84.7 57.8 62.5 62.5 15.6 17.8 13.4 56.6 52.0 0.00 0.0000000 76.8 79.4
2021-09-15 01:05:00 62.5 83.8 57.5 62.5 62.5 9.0 14.0 11.8 68.1 53.1 0.00 0.0000000 76.7 79.4
2021-09-15 01:10:00 62.7 83.2 57.5 62.7 62.7 10.3 15.1 10.3 42.6 52.1 0.00 0.0000000 76.6 79.3
2021-09-15 01:15:00 62.8 81.8 57.1 62.8 62.8 10.1 14.7 11.1 36.0 45.2 0.00 0.0000000 76.5 79.3
2021-09-15 01:20:00 62.7 80.8 56.8 62.7 62.7 11.2 12.8 9.3 47.8 44.1 0.00 0.0000000 76.4 79.2
2021-09-15 01:25:00 62.6 80.9 56.7 62.6 62.6 9.9 14.0 10.0 47.4 48.7 0.00 0.0000000 76.3 79.1
2021-09-15 01:30:00 62.7 79.5 56.2 62.7 62.7 11.2 15.3 11.5 77.2 51.9 0.00 0.0000000 76.2 79.1
2021-09-15 01:35:00 62.7 79.3 56.2 62.7 62.7 13.7 14.6 11.5 33.9 50.8 0.00 0.0000000 76.2 79.0
2021-09-15 01:40:00 62.4 79.9 56.1 62.4 62.4 9.2 14.0 11.1 51.4 56.3 0.00 0.0000000 76.1 78.9
2021-09-15 01:45:00 62.4 80.3 56.3 62.4 62.4 8.8 13.7 9.9 61.0 52.4 0.00 0.0000000 76.0 78.9
2021-09-15 01:50:00 62.4 80.9 56.4 62.4 62.4 9.0 13.0 9.4 36.5 49.6 0.00 0.0000000 75.9 78.8
2021-09-15 01:55:00 62.3 82.3 56.8 62.3 62.3 7.2 12.4 8.1 50.2 34.4 0.00 0.0000000 75.8 78.7
2021-09-15 02:00:00 61.9 84.1 57.1 61.9 61.9 8.0 13.3 8.9 45.6 29.1 0.00 0.0000000 75.7 78.7
2021-09-15 02:05:00 61.8 85.3 57.3 61.8 61.8 8.1 12.2 8.2 37.1 44.1 0.00 0.0000000 75.7 78.6
2021-09-15 02:10:00 61.8 86.0 57.5 61.8 61.8 6.7 11.9 8.1 32.8 42.7 0.00 0.0000000 75.6 78.5
2021-09-15 02:15:00 61.4 86.5 57.4 61.4 61.4 6.3 10.1 6.8 75.4 35.1 0.00 0.0000000 75.5 78.5
2021-09-15 02:20:00 61.3 86.8 57.3 61.3 61.3 12.8 14.7 9.7 51.1 27.1 0.00 0.0000000 75.4 78.4
2021-09-15 02:25:00 60.8 87.5 57.1 60.8 60.8 8.8 13.3 9.9 43.3 21.7 0.00 0.0000000 75.3 78.3
2021-09-15 02:30:00 60.7 87.3 56.9 60.7 60.7 5.5 15.8 9.8 0.5 19.6 0.00 0.0000000 75.2 78.3
2021-09-15 02:35:00 60.5 87.7 56.9 60.5 60.5 8.0 12.2 8.2 22.7 32.5 0.00 0.0000000 75.1 78.2
2021-09-15 02:40:00 60.6 87.6 56.9 60.6 60.6 7.6 10.3 7.6 36.2 39.0 0.00 0.0000000 74.9 78.1
2021-09-15 02:45:00 60.5 87.9 56.9 60.5 60.5 9.7 11.2 8.1 20.7 39.7 0.00 0.0000000 74.8 78.0
2021-09-15 02:50:00 60.5 88.1 56.9 60.5 60.5 8.8 13.9 11.0 55.1 52.5 0.00 0.0000000 74.7 78.0
2021-09-15 02:55:00 60.5 88.3 57.1 60.5 60.5 12.2 13.9 11.0 65.0 54.7 0.00 0.0000000 74.6 77.9
2021-09-15 03:00:00 60.7 88.6 57.3 60.7 60.7 11.9 16.0 12.0 44.8 51.3 0.00 0.0000000 74.5 77.8
2021-09-15 03:05:00 60.8 88.7 57.4 60.8 60.8 12.1 16.5 12.5 74.4 45.8 0.00 0.0000000 74.4 77.7
2021-09-15 03:10:00 61.0 87.9 57.4 61.0 61.0 11.3 16.7 12.6 38.0 62.3 0.00 0.0000000 74.3 77.7
2021-09-15 03:15:00 61.2 87.6 57.5 61.2 61.2 12.8 17.8 12.4 64.4 70.5 0.00 0.0000000 74.2 77.6
2021-09-15 03:20:00 61.3 87.6 57.6 61.3 61.3 10.8 15.3 11.8 81.0 80.6 0.00 0.0000000 74.1 77.5
2021-09-15 03:25:00 61.3 86.9 57.4 61.3 61.3 13.1 13.7 11.2 86.5 82.0 0.00 0.0000000 74.0 77.5
2021-09-15 03:30:00 61.8 84.2 56.9 61.8 61.8 10.5 14.7 11.7 103.3 85.8 0.00 0.0000000 73.9 77.4
2021-09-15 03:35:00 61.5 86.5 57.4 61.5 61.5 8.0 13.5 10.9 102.6 102.9 0.00 0.0000000 73.9 77.3
2021-09-15 03:40:00 61.3 88.3 57.8 61.3 61.3 9.4 13.5 10.7 102.8 105.9 0.00 0.0000000 73.7 77.3
2021-09-15 03:45:00 61.1 89.0 57.8 61.1 61.1 9.4 13.3 9.9 111.5 111.4 0.00 0.0000000 73.7 77.2
2021-09-15 03:50:00 60.8 90.0 57.9 60.8 60.8 11.7 12.4 9.8 117.7 115.4 0.00 0.0000000 73.6 77.1
2021-09-15 03:55:00 60.7 90.4 57.9 60.7 60.7 7.1 10.8 8.0 122.6 119.9 0.00 0.0000000 73.6 77.1
2021-09-15 04:00:00 60.7 90.9 58.0 60.7 60.7 6.7 9.6 7.5 141.0 132.9 0.00 0.0000000 73.5 77.0
2021-09-15 04:05:00 60.7 90.6 57.9 60.7 60.7 10.1 10.1 7.9 134.1 140.6 0.00 0.0000000 73.5 76.9
2021-09-15 04:10:00 60.7 90.4 57.9 60.7 60.7 6.7 10.1 7.5 128.6 135.1 0.00 0.0000000 73.4 76.9
2021-09-15 04:15:00 60.8 89.9 57.8 60.8 60.8 4.2 7.6 5.7 120.3 126.0 0.00 0.0000000 73.3 76.8
2021-09-15 04:20:00 60.5 89.9 57.5 60.5 60.5 4.9 6.5 4.8 126.8 127.7 0.00 0.0000000 73.3 76.7
2021-09-15 04:25:00 60.4 89.9 57.4 60.4 60.4 5.3 7.8 5.5 136.8 146.7 0.00 0.0000000 73.2 76.7
2021-09-15 04:30:00 60.4 90.0 57.4 60.4 60.4 4.4 5.5 4.3 127.6 151.3 0.00 0.0000000 73.2 76.6
2021-09-15 04:35:00 60.2 89.9 57.3 60.2 60.2 2.4 6.0 3.7 132.9 133.3 0.00 0.0000000 73.1 76.6
2021-09-15 04:40:00 60.1 89.5 57.0 60.1 60.1 2.2 4.2 2.7 159.6 138.2 0.00 0.0000000 73.0 76.5
2021-09-15 04:45:00 59.9 90.2 57.0 59.9 59.9 0.0 3.1 1.1 187.8 160.8 0.00 0.0000000 73.0 76.5
2021-09-15 04:50:00 59.8 90.4 57.0 59.8 59.8 0.0 0.0 0.0 141.6 150.6 0.00 0.0000000 72.9 76.4
2021-09-15 04:55:00 59.5 89.8 56.5 59.5 59.5 3.1 3.3 2.0 106.2 134.4 0.00 0.0000000 72.8 76.3
2021-09-15 05:00:00 58.7 91.4 56.2 58.7 58.7 3.5 3.7 3.0 82.7 90.0 0.00 0.0000000 72.8 76.3
2021-09-15 05:05:00 58.6 91.4 56.1 58.6 58.6 3.3 4.2 3.6 68.0 75.0 0.00 0.0000000 72.7 76.2
2021-09-15 05:10:00 58.4 91.1 55.8 58.4 58.4 2.6 3.1 2.7 89.0 81.4 0.00 0.0000000 72.6 76.2
2021-09-15 05:15:00 58.2 91.4 55.7 58.2 58.2 2.2 4.7 3.2 76.5 87.2 0.00 0.0000000 72.5 76.1
2021-09-15 05:20:00 57.9 91.4 55.4 57.9 57.9 2.4 3.0 2.4 83.5 85.3 0.00 0.0000000 72.4 76.0
2021-09-15 05:25:00 58.0 91.2 55.4 58.0 58.0 1.9 3.0 2.2 89.8 81.7 0.00 0.0000000 72.3 76.0
2021-09-15 05:30:00 58.0 91.5 55.5 58.0 58.0 3.0 3.3 2.4 56.0 68.3 0.00 0.0000000 72.2 75.9
2021-09-15 05:35:00 58.0 91.7 55.6 58.0 58.0 3.0 3.5 2.8 49.4 54.3 0.00 0.0000000 72.1 75.9
2021-09-15 05:40:00 58.3 91.5 55.8 58.3 58.3 1.5 3.3 2.5 351.9 43.4 0.00 0.0000000 72.1 75.8
2021-09-15 05:45:00 58.4 91.1 55.9 58.4 58.4 0.0 1.2 0.2 252.0 1.8 0.00 0.0000000 72.0 75.7
2021-09-15 05:50:00 58.6 89.6 55.5 58.6 58.6 2.6 3.0 0.9 245.2 243.3 0.00 0.0000000 71.9 75.7
2021-09-15 05:55:00 58.3 90.0 55.3 58.3 58.3 0.0 2.6 0.7 299.1 276.3 0.00 0.0000000 71.8 75.6
2021-09-15 06:00:00 58.0 90.1 55.1 58.0 58.0 0.0 0.0 0.0 260.0 268.8 0.00 0.0000000 71.7 75.5
2021-09-15 06:05:00 57.5 90.4 54.8 57.5 57.5 0.0 0.0 0.0 245.5 251.5 0.00 0.0000000 71.7 75.5
2021-09-15 06:10:00 57.4 91.2 54.9 57.4 57.4 1.9 3.7 2.6 264.8 246.7 0.00 0.0000000 71.6 75.4
2021-09-15 06:15:00 57.3 91.6 54.9 57.3 57.3 0.0 1.7 0.3 303.4 301.6 0.00 0.0000000 71.5 75.4
2021-09-15 06:20:00 57.3 91.9 55.0 57.3 57.3 2.1 2.1 0.2 241.8 256.4 0.00 0.0000000 71.4 75.3
2021-09-15 06:25:00 57.1 91.6 54.6 57.1 57.1 3.7 4.2 3.7 221.6 232.0 0.00 0.0000000 71.4 75.3
2021-09-15 06:30:00 57.1 92.3 54.8 57.1 57.1 3.7 4.4 3.7 228.2 220.8 0.00 0.0000000 71.3 75.2
2021-09-15 06:35:00 57.1 94.0 55.3 57.1 57.1 5.8 5.8 4.2 222.5 223.8 0.00 0.0000320 71.2 75.1
2021-09-15 06:40:00 57.4 93.6 55.6 57.4 57.4 5.1 6.0 5.1 213.3 225.0 0.00 0.0004415 71.2 75.1
2021-09-15 06:45:00 58.1 92.9 56.0 58.1 58.1 4.7 5.5 4.7 221.7 221.6 0.00 0.0016089 71.1 75.0
2021-09-15 06:50:00 58.6 91.3 56.1 58.6 58.6 3.1 4.6 3.6 222.4 218.8 0.00 0.0050705 71.0 74.9
2021-09-15 06:55:00 58.8 90.6 56.0 58.8 58.8 3.3 3.3 2.1 233.7 238.9 0.00 0.0092111 71.0 74.9
2021-09-15 07:00:00 59.0 89.8 56.0 59.0 59.0 3.7 3.8 3.0 238.1 244.5 0.00 0.0136137 70.9 74.8
2021-09-15 07:05:00 59.0 90.3 56.2 59.0 59.0 3.7 4.2 3.7 237.8 234.8 0.00 0.0170103 70.9 74.8
2021-09-15 07:10:00 59.4 90.9 56.7 59.4 59.4 2.8 4.0 3.3 214.5 228.2 0.00 0.0208917 70.8 74.7
2021-09-15 07:15:00 59.9 89.6 56.8 59.9 59.9 4.2 4.2 2.8 245.9 230.0 0.00 0.0249510 70.8 74.7
2021-09-15 07:20:00 60.7 88.5 57.2 60.7 60.7 4.4 5.3 4.2 224.7 230.0 0.00 0.0294199 70.8 74.6
2021-09-15 07:25:00 61.4 86.8 57.4 61.4 61.4 5.8 6.7 5.5 228.1 226.3 0.00 0.0339584 70.8 74.6
2021-09-15 07:30:00 61.8 85.7 57.5 61.8 61.8 4.2 6.9 5.2 232.3 234.5 0.00 0.0381604 70.8 74.5
2021-09-15 07:35:00 62.3 83.8 57.3 62.3 62.3 4.6 5.6 4.6 241.7 238.9 0.00 0.0418666 70.9 74.5
2021-09-15 07:40:00 62.7 82.3 57.3 62.7 62.7 5.1 6.0 5.3 252.8 241.9 0.00 0.0464846 70.9 74.5
2021-09-15 07:45:00 63.3 80.6 57.3 63.3 63.3 6.0 6.7 5.4 249.9 242.9 0.00 0.0512509 71.0 74.4
2021-09-15 07:50:00 63.7 79.6 57.3 63.7 63.7 5.8 6.7 5.7 236.8 243.1 0.00 0.0557257 71.0 74.4
2021-09-15 07:55:00 64.4 79.8 58.0 64.4 64.4 5.1 7.6 5.9 226.1 237.1 0.00 0.0604914 71.1 74.4
2021-09-15 08:00:00 64.8 78.1 57.8 64.8 64.8 7.1 7.1 5.6 232.2 240.4 0.00 0.0649132 71.2 74.3
2021-09-15 08:05:00 65.2 76.9 57.8 65.2 65.2 4.6 6.7 5.6 262.5 242.2 0.00 0.0695180 71.4 74.3
2021-09-15 08:10:00 66.5 74.6 58.2 66.5 66.5 2.1 4.4 2.9 15.3 297.0 0.00 0.0742981 71.5 74.3
2021-09-15 08:15:00 67.4 73.1 58.5 67.4 67.4 4.0 5.5 3.6 47.3 29.5 0.00 0.0783766 71.7 74.3
2021-09-15 08:20:00 67.2 73.8 58.5 67.2 67.2 5.8 6.3 4.4 57.4 39.2 0.00 0.0836232 71.8 74.3
2021-09-15 08:25:00 66.8 73.6 58.1 66.8 66.8 1.7 5.5 3.2 41.0 35.1 0.00 0.0892757 72.0 74.4
2021-09-15 08:30:00 67.4 73.1 58.5 67.4 67.4 3.7 5.3 3.8 59.2 61.8 0.00 0.0938500 72.2 74.4
2021-09-15 08:35:00 67.4 72.6 58.3 67.4 67.4 4.4 7.4 4.8 42.3 61.0 0.00 0.0987501 72.4 74.4
2021-09-15 08:40:00 67.7 71.4 58.2 67.7 67.7 4.6 6.2 4.2 58.2 45.1 0.00 0.1039571 72.6 74.4
2021-09-15 08:45:00 67.9 71.4 58.2 67.9 67.9 3.7 6.5 4.3 68.0 63.9 0.00 0.1086420 72.9 74.5
2021-09-15 08:50:00 68.5 70.7 58.6 68.5 68.5 4.0 6.0 4.3 67.1 59.2 0.00 0.1136898 73.1 74.5
2021-09-15 08:55:00 68.8 69.0 58.3 68.8 68.8 4.4 5.8 3.9 120.9 85.9 0.00 0.1183849 73.4 74.6
2021-09-15 09:00:00 69.1 69.1 58.5 69.1 69.1 3.1 4.6 3.1 66.2 104.2 0.00 0.1236242 73.6 74.7
2021-09-15 09:05:00 69.2 68.3 58.3 69.2 69.2 1.5 6.2 3.5 313.9 75.1 0.00 0.1272753 73.9 74.7
2021-09-15 09:10:00 70.7 65.6 58.6 70.7 70.7 2.8 3.5 1.8 138.1 104.6 0.00 0.1323871 74.2 74.8
2021-09-15 09:15:00 69.6 68.8 58.9 69.6 69.6 3.5 5.3 4.4 107.1 80.7 0.00 0.1377334 74.5 74.9
2021-09-15 09:20:00 69.9 67.1 58.5 69.9 69.9 2.2 4.4 2.6 83.0 54.9 0.00 0.1416085 74.9 75.0
2021-09-15 09:25:00 70.8 65.6 58.7 70.8 70.8 4.0 4.2 2.6 126.0 65.5 0.00 0.1430165 75.2 75.1
2021-09-15 09:30:00 70.4 65.9 58.4 70.4 70.4 3.7 6.7 4.3 67.1 71.9 0.00 0.1512638 75.5 75.2
2021-09-15 09:35:00 70.6 67.9 59.5 70.6 70.6 3.0 5.3 3.6 136.2 92.8 0.00 0.1562859 75.9 75.3
2021-09-15 09:40:00 70.9 65.9 58.9 70.9 70.9 4.9 6.5 4.0 101.9 110.3 0.00 0.1607536 76.2 75.4
2021-09-15 09:45:00 71.0 66.2 59.1 71.0 71.0 3.7 8.3 5.4 153.8 136.1 0.00 0.1631517 76.6 75.6
2021-09-15 09:50:00 71.2 64.6 58.6 71.2 71.2 3.8 6.2 3.9 131.7 125.2 0.00 0.1682508 77.0 75.7
2021-09-15 09:55:00 71.7 63.3 58.6 71.7 71.7 2.4 4.9 3.0 62.1 99.4 0.00 0.1722657 77.4 75.8
2021-09-15 10:00:00 72.1 63.7 59.1 72.1 72.1 5.1 9.0 5.0 156.5 112.7 0.00 0.1767076 77.7 76.0
2021-09-15 10:05:00 72.2 64.0 59.3 72.2 72.2 2.6 6.5 4.7 243.0 161.3 0.00 0.1798727 78.1 76.2
2021-09-15 10:10:00 72.4 63.4 59.2 72.4 72.4 3.5 7.1 3.8 104.4 116.3 0.00 0.1409029 78.5 76.3
2021-09-15 10:15:00 71.8 64.7 59.3 71.8 71.8 4.2 6.0 3.7 117.6 100.7 0.00 0.1088234 78.8 76.5
2021-09-15 10:20:00 72.4 62.6 58.9 72.4 72.4 0.0 5.1 3.1 8.4 133.5 0.00 0.1837355 79.2 76.6
2021-09-15 10:25:00 73.2 61.3 59.1 73.2 73.2 5.8 6.5 3.8 170.5 137.0 0.00 0.2088449 79.4 76.8
2021-09-15 10:30:00 73.7 60.1 59.0 73.7 73.7 5.5 7.2 5.6 116.5 151.5 0.00 0.2140920 79.7 77.0
2021-09-15 10:35:00 73.8 61.7 59.8 73.8 73.8 1.7 8.0 5.3 209.3 132.7 0.00 0.2171592 80.0 77.2
2021-09-15 10:40:00 74.5 59.3 59.4 74.5 74.5 4.6 8.1 5.4 156.3 143.8 0.00 0.2175535 80.3 77.3
2021-09-15 10:45:00 74.0 60.4 59.4 74.0 74.0 3.8 9.6 5.1 132.6 144.6 0.00 0.1622259 80.6 77.5
2021-09-15 10:50:00 74.3 58.7 58.9 74.3 74.3 2.4 6.9 3.2 311.4 115.7 0.00 0.1905642 80.9 77.6
2021-09-15 10:55:00 75.3 57.5 59.2 75.3 75.3 7.1 9.2 4.3 103.0 61.8 0.00 0.2387992 81.2 77.8
2021-09-15 11:00:00 74.6 59.0 59.4 74.6 74.6 3.7 6.7 4.6 49.5 100.5 0.00 0.2142016 81.5 78.0
2021-09-15 11:05:00 75.6 56.4 59.0 75.6 75.6 5.5 6.0 2.9 133.4 118.8 0.00 0.2432806 81.8 78.2
2021-09-15 11:10:00 75.8 56.4 59.2 75.8 75.8 3.8 6.9 5.6 191.1 159.6 0.00 0.2438756 82.2 78.4
2021-09-15 11:15:00 76.2 57.7 60.2 76.2 76.2 3.3 6.0 3.6 165.6 122.3 0.00 0.2351231 82.6 78.6
2021-09-15 11:20:00 74.9 57.7 59.0 74.9 74.9 4.0 9.4 4.8 81.5 164.0 0.00 0.1928950 83.0 78.8
2021-09-15 11:25:00 75.8 56.6 59.3 75.8 75.8 6.2 8.7 4.5 177.2 172.6 0.00 0.2449503 83.4 79.0
2021-09-15 11:30:00 75.9 55.7 58.9 75.9 75.9 6.3 9.4 6.8 168.2 159.2 0.00 0.2414325 83.7 79.2
2021-09-15 11:35:00 75.1 56.8 58.8 75.1 75.1 3.7 10.3 6.6 215.5 188.1 0.00 0.2445705 83.9 79.4
2021-09-15 11:40:00 76.0 54.9 58.7 76.0 76.0 4.0 8.5 4.7 194.8 184.4 0.00 0.2614470 84.2 79.6
2021-09-15 11:45:00 75.5 57.0 59.2 75.5 75.5 7.2 10.8 7.9 201.0 168.5 0.00 0.1630809 84.6 79.8
2021-09-15 11:50:00 76.4 54.5 58.7 76.4 76.4 3.0 12.6 5.3 147.6 159.6 0.00 0.1661538 84.9 80.0
2021-09-15 11:55:00 77.6 52.3 58.7 77.6 77.6 8.1 9.9 6.1 210.8 171.8 0.00 0.2617577 85.2 80.2
2021-09-15 12:00:00 76.8 54.1 59.0 76.8 76.8 6.0 11.2 7.9 174.8 190.7 0.00 0.2562960 85.5 80.5
2021-09-15 12:05:00 75.9 55.6 58.9 75.9 75.9 7.2 10.3 7.0 192.2 192.4 0.00 0.1390428 85.8 80.7
2021-09-15 12:10:00 76.6 53.5 58.5 76.6 76.6 7.8 8.7 5.3 196.0 234.1 0.00 0.2675595 86.1 80.9
2021-09-15 12:15:00 77.5 52.3 58.7 77.5 77.5 7.2 12.8 8.6 171.5 183.5 0.00 0.2627850 86.4 81.0
2021-09-15 12:20:00 77.6 52.0 58.6 77.6 77.6 5.1 13.7 7.7 130.4 165.2 0.00 0.1966650 86.7 81.2
2021-09-15 12:25:00 77.1 52.8 58.6 77.1 77.1 3.3 7.6 4.4 90.7 124.1 0.00 0.1037505 87.0 81.4
2021-09-15 12:30:00 78.8 51.8 59.6 78.8 78.8 11.3 11.3 8.6 189.4 155.3 0.00 0.2687607 87.3 81.6
2021-09-15 12:35:00 77.5 52.8 58.9 77.5 77.5 4.2 11.5 6.2 168.0 178.7 0.00 0.1334812 87.5 81.8
2021-09-15 12:40:00 78.9 50.4 58.9 78.9 78.9 6.2 12.6 8.5 136.3 177.3 0.00 0.2916411 87.7 81.9
2021-09-15 12:45:00 78.3 52.1 59.3 78.3 78.3 8.5 10.3 6.0 156.9 159.9 0.00 0.1659445 87.9 82.1
2021-09-15 12:50:00 78.7 48.9 57.9 78.7 78.7 8.8 11.9 7.8 148.7 151.8 0.00 0.1648856 88.1 82.2
2021-09-15 12:55:00 79.5 48.6 58.4 79.5 79.5 8.0 14.6 8.8 153.9 144.4 0.00 0.2667528 88.3 82.3
2021-09-15 13:00:00 80.4 47.5 58.6 80.4 80.9 5.5 9.0 5.0 201.7 167.3 0.00 0.2470415 88.4 82.5
2021-09-15 13:05:00 80.5 46.1 57.9 80.5 80.8 10.6 11.3 8.4 132.9 167.7 0.00 0.2288025 88.6 82.6
2021-09-15 13:10:00 79.9 48.1 58.6 79.9 79.9 8.5 12.1 9.1 145.8 147.9 0.00 0.2112971 88.9 82.7
2021-09-15 13:15:00 81.0 47.1 58.9 81.0 81.4 8.3 10.8 6.7 162.3 166.5 0.00 0.2414041 89.2 82.9
2021-09-15 13:20:00 81.1 46.6 58.7 81.1 81.4 10.3 13.5 10.3 185.7 171.2 0.00 0.2467818 89.4 83.0
2021-09-15 13:25:00 80.4 45.6 57.5 80.4 80.7 5.6 12.1 6.8 130.4 141.9 0.00 0.1013222 89.7 83.1
2021-09-15 13:30:00 80.5 47.1 58.5 80.5 81.0 11.2 11.7 6.1 172.4 177.3 0.00 0.2172104 89.9 83.2
2021-09-15 13:35:00 80.1 47.1 58.1 80.1 80.6 10.1 13.5 9.4 196.3 161.3 0.00 0.1917498 90.1 83.3
2021-09-15 13:40:00 80.9 44.8 57.4 80.9 81.0 4.0 11.3 8.3 146.6 160.6 0.00 0.2805622 90.2 83.4
2021-09-15 13:45:00 80.8 44.3 57.0 80.8 80.9 2.8 13.0 6.2 117.8 165.3 0.00 0.2420886 90.3 83.6
2021-09-15 13:50:00 82.0 44.6 58.3 82.0 82.0 8.5 11.7 8.0 170.7 169.8 0.00 0.2524912 90.5 83.7
2021-09-15 13:55:00 81.1 45.8 58.2 81.1 81.4 6.0 10.6 7.9 157.5 177.5 0.00 0.1664518 90.8 83.8
2021-09-15 14:00:00 81.2 46.6 58.9 81.2 81.6 7.6 13.1 7.4 182.0 166.4 0.00 0.1902204 91.1 83.9
2021-09-15 14:05:00 80.3 46.4 57.9 80.3 80.7 7.8 12.8 7.7 191.6 189.0 0.00 0.1895599 91.3 84.0
2021-09-15 14:10:00 80.8 45.9 58.0 80.8 81.1 4.7 8.7 6.6 178.5 170.5 0.00 0.1898230 91.4 84.2
2021-09-15 14:15:00 81.3 45.3 58.1 81.3 81.5 8.5 14.4 9.1 158.2 171.5 0.00 0.2353246 91.6 84.3
2021-09-15 14:20:00 79.7 46.7 57.5 79.7 79.7 4.6 12.4 7.4 192.6 182.6 0.00 0.0824135 91.7 84.4
2021-09-15 14:25:00 80.1 46.9 58.0 80.1 80.6 8.5 13.1 6.7 161.9 166.9 0.00 0.1058867 91.8 84.5
2021-09-15 14:30:00 80.0 45.7 57.1 80.0 80.0 6.2 12.4 7.9 171.9 154.4 0.00 0.0859323 91.8 84.7
2021-09-15 14:35:00 82.0 46.7 59.6 82.0 82.3 7.1 8.1 5.8 181.8 135.9 0.00 0.2583569 91.7 84.8
2021-09-15 14:40:00 83.0 42.4 57.8 83.0 82.6 8.5 13.7 8.7 129.0 151.0 0.00 0.2030807 91.7 84.9
2021-09-15 14:45:00 82.7 42.5 57.6 82.7 82.4 7.8 9.9 7.5 152.8 146.7 0.00 0.2406136 91.7 85.0
2021-09-15 14:50:00 82.7 41.7 57.0 82.7 82.2 8.0 12.2 9.4 189.6 165.7 0.00 0.2608998 91.8 85.1
2021-09-15 14:55:00 82.0 44.9 58.5 82.0 82.1 7.8 14.2 9.6 199.3 185.1 0.00 0.1489327 91.9 85.1
2021-09-15 15:00:00 81.6 44.0 57.5 81.6 81.5 13.3 13.3 8.9 171.4 168.0 0.00 0.1693259 92.2 85.2
2021-09-15 15:05:00 82.7 43.5 58.3 82.7 82.5 8.7 17.1 10.8 177.8 169.2 0.00 0.2058797 92.3 85.3
2021-09-15 15:10:00 82.2 44.3 58.3 82.2 82.2 8.8 14.6 10.1 197.7 177.1 0.00 0.2060005 92.4 85.4
2021-09-15 15:15:00 81.2 45.1 57.9 81.2 81.3 4.6 10.8 7.7 169.8 178.5 0.00 0.1301864 92.5 85.5
2021-09-15 15:20:00 82.3 43.6 57.9 82.3 82.1 8.0 14.9 9.9 150.6 161.4 0.00 0.2208272 92.5 85.5
2021-09-15 15:25:00 83.1 41.6 57.3 83.1 82.6 11.3 15.5 10.2 194.7 170.9 0.00 0.2088389 92.6 85.6
2021-09-15 15:30:00 82.7 42.3 57.4 82.7 82.3 7.2 14.6 9.3 182.0 200.3 0.00 0.1998894 92.7 85.7
2021-09-15 15:35:00 83.4 42.6 58.3 83.4 83.1 14.2 16.0 10.7 210.3 199.7 0.00 0.1956729 92.8 85.7
2021-09-15 15:40:00 82.3 43.6 58.0 82.3 82.2 12.4 17.2 11.9 191.3 186.4 0.00 0.1834046 92.9 85.8
2021-09-15 15:45:00 82.4 42.9 57.6 82.4 82.2 10.3 11.0 9.2 161.4 177.0 0.00 0.1857608 93.0 85.9
2021-09-15 15:50:00 83.0 42.4 57.8 83.0 82.7 10.3 14.0 9.2 187.4 180.1 0.00 0.1619998 93.1 85.9
2021-09-15 15:55:00 81.6 44.6 57.9 81.6 81.6 8.7 15.1 11.1 164.7 176.9 0.00 0.1031550 93.2 86.0
2021-09-15 16:00:00 82.7 43.0 57.9 82.7 82.5 14.2 14.2 9.5 197.8 180.0 0.00 0.1761992 93.2 86.1
2021-09-15 16:05:00 82.7 42.0 57.2 82.7 82.3 8.0 13.7 11.3 191.1 183.4 0.00 0.1725838 93.1 86.1
2021-09-15 16:10:00 82.8 42.3 57.6 82.8 82.5 8.5 12.2 9.5 150.0 171.5 0.00 0.1574911 93.1 86.1
2021-09-15 16:15:00 82.9 40.7 56.6 82.9 82.3 11.3 14.6 11.4 216.4 203.9 0.00 0.1635318 93.1 86.1
2021-09-15 16:20:00 83.0 40.2 56.3 83.0 82.3 10.3 16.5 9.8 191.7 185.6 0.00 0.1500429 93.1 86.2
2021-09-15 16:25:00 81.8 43.0 57.1 81.8 81.6 12.8 14.4 10.3 195.7 185.4 0.00 0.0835179 93.1 86.2
2021-09-15 16:30:00 82.7 43.1 58.0 82.7 82.5 12.4 16.7 10.9 165.5 181.4 0.00 0.1493933 93.1 86.2
2021-09-15 16:35:00 83.3 41.8 57.7 83.3 82.8 8.5 14.2 9.7 157.3 181.0 0.00 0.1455340 93.0 86.2
2021-09-15 16:40:00 83.3 40.1 56.5 83.3 82.6 12.8 13.1 9.5 189.5 188.6 0.00 0.1337814 92.9 86.2
2021-09-15 16:45:00 83.2 40.8 56.9 83.2 82.6 9.2 12.4 8.3 158.9 184.7 0.00 0.1351778 92.8 86.3
2021-09-15 16:50:00 83.0 41.8 57.4 83.0 82.6 7.4 13.1 10.5 165.9 165.7 0.00 0.1401082 92.8 86.3
2021-09-15 16:55:00 83.3 39.8 56.3 83.3 83.3 10.1 14.9 10.2 188.0 178.4 0.00 0.1238358 92.7 86.3
2021-09-15 17:00:00 82.5 40.9 56.4 82.5 82.0 5.8 13.5 9.8 196.3 197.7 0.00 0.1009978 92.7 86.3
2021-09-15 17:05:00 82.9 40.3 56.3 82.9 82.3 10.8 12.6 8.7 179.1 193.7 0.00 0.1083450 92.6 86.3
2021-09-15 17:10:00 82.8 40.1 56.1 82.8 82.2 12.4 12.8 10.3 156.6 174.0 0.00 0.1085398 92.5 86.3
2021-09-15 17:15:00 82.6 41.1 56.5 82.6 82.1 13.0 14.4 11.0 184.8 174.6 0.00 0.0896786 92.4 86.3
2021-09-15 17:20:00 82.0 41.2 56.2 82.0 81.6 8.8 13.5 10.4 191.9 181.7 0.00 0.0723526 92.3 86.3
2021-09-15 17:25:00 82.2 40.1 55.6 82.2 81.7 12.8 15.6 11.4 184.6 173.9 0.00 0.0873874 92.1 86.3
2021-09-15 17:30:00 82.0 39.9 55.3 82.0 82.0 11.3 16.0 12.1 178.6 183.4 0.00 0.0780105 91.9 86.3
2021-09-15 17:35:00 82.1 40.7 55.9 82.1 81.6 10.1 11.9 9.2 217.2 173.3 0.00 0.0750526 91.8 86.3
2021-09-15 17:40:00 81.6 41.0 55.6 81.6 81.2 11.7 14.7 12.2 209.4 190.2 0.00 0.0547063 91.5 86.2
2021-09-15 17:45:00 81.6 41.6 56.0 81.6 81.3 6.9 12.8 9.8 164.9 185.0 0.00 0.0626947 91.3 86.2
2021-09-15 17:50:00 81.4 40.6 55.1 81.4 81.0 13.0 13.1 10.0 177.6 183.0 0.00 0.0584159 91.1 86.2
2021-09-15 17:55:00 81.3 40.9 55.3 81.3 81.0 14.2 14.9 11.1 170.4 183.6 0.00 0.0544414 90.8 86.1
2021-09-15 18:00:00 81.2 41.2 55.3 81.2 80.9 9.6 15.6 10.9 165.2 183.0 0.00 0.0499036 90.5 86.1
2021-09-15 18:05:00 81.1 41.5 55.5 81.1 80.9 9.4 12.1 9.1 160.8 172.2 0.00 0.0457934 90.2 86.1
2021-09-15 18:10:00 81.0 41.5 55.4 81.0 80.8 9.6 12.2 10.2 172.9 181.5 0.00 0.0424060 89.9 86.0
2021-09-15 18:15:00 80.8 41.7 55.3 80.8 80.6 7.2 13.0 9.6 177.0 181.7 0.00 0.0355544 89.6 85.9
2021-09-15 18:20:00 80.5 41.7 55.1 80.5 80.4 11.2 11.2 8.2 191.6 194.9 0.00 0.0309966 89.4 85.9
2021-09-15 18:25:00 80.3 42.5 55.4 80.3 80.3 7.6 11.2 8.6 180.1 183.5 0.00 0.0271383 89.1 85.9
2021-09-15 18:30:00 79.9 43.2 55.5 79.9 79.9 9.2 11.5 9.5 190.6 185.2 0.00 0.0225248 88.8 85.8
2021-09-15 18:35:00 79.4 44.0 55.6 79.4 79.4 6.7 9.4 7.6 171.9 184.9 0.00 0.0153951 88.6 85.7
2021-09-15 18:40:00 79.0 44.5 55.6 79.0 79.0 8.1 11.0 8.4 175.7 172.9 0.00 0.0086432 88.3 85.7
2021-09-15 18:45:00 78.5 45.1 55.5 78.5 78.5 7.1 10.5 8.3 170.2 166.1 0.00 0.0064544 88.0 85.6
2021-09-15 18:50:00 78.1 46.5 55.9 78.1 78.1 5.8 9.2 7.4 164.8 168.8 0.00 0.0062738 87.7 85.5
2021-09-15 18:55:00 77.3 47.6 55.9 77.3 77.3 6.9 8.1 6.5 169.9 170.9 0.00 0.0028350 87.4 85.4
2021-09-15 19:00:00 76.8 48.2 55.8 76.8 76.8 5.1 7.1 5.9 182.1 170.7 0.00 0.0005247 87.2 85.4
2021-09-15 19:05:00 76.4 48.6 55.6 76.4 76.4 5.8 6.9 5.9 185.6 173.8 0.00 0.0000092 86.9 85.3
2021-09-15 19:10:00 76.0 49.7 55.9 76.0 76.0 5.1 7.4 5.8 171.0 168.0 0.00 0.0000000 86.6 85.2
2021-09-15 19:15:00 75.6 50.5 55.9 75.6 75.6 4.9 7.1 5.6 175.5 169.3 0.00 0.0000000 86.3 85.1
2021-09-15 19:20:00 74.9 51.6 55.9 74.9 74.9 4.7 6.0 5.0 183.4 173.6 0.00 0.0000000 86.1 85.0
2021-09-15 19:25:00 74.3 52.6 55.9 74.3 74.3 4.4 5.5 4.3 163.9 166.0 0.00 0.0000000 85.8 85.0
2021-09-15 19:30:00 74.1 53.2 56.0 74.1 74.1 5.5 6.0 4.7 160.8 152.8 0.00 0.0000000 85.5 84.8
2021-09-15 19:35:00 74.2 53.6 56.3 74.2 74.2 6.5 7.6 6.0 151.0 153.1 0.00 0.0000000 85.3 84.7
2021-09-15 19:40:00 74.2 53.7 56.4 74.2 74.2 7.1 8.5 7.0 160.2 148.0 0.00 0.0000000 85.0 84.7
2021-09-15 19:45:00 74.2 54.1 56.5 74.2 74.2 8.0 8.5 6.8 155.1 152.8 0.00 0.0000000 84.7 84.6
2021-09-15 19:50:00 73.9 54.7 56.6 73.9 73.9 5.5 8.7 6.6 155.2 148.9 0.00 0.0000000 84.5 84.5
2021-09-15 19:55:00 73.7 55.0 56.5 73.7 73.7 6.5 8.0 6.2 173.4 148.9 0.00 0.0000000 84.3 84.4
2021-09-15 20:00:00 73.4 55.9 56.7 73.4 73.4 4.9 7.6 5.5 142.6 149.4 0.00 0.0000000 84.0 84.3
2021-09-15 20:05:00 73.3 56.2 56.7 73.3 73.3 6.9 8.8 6.3 144.0 146.4 0.00 0.0000000 83.8 84.2
2021-09-15 20:10:00 73.1 56.7 56.8 73.1 73.1 6.9 8.1 6.3 148.4 149.0 0.00 0.0000000 83.6 84.1
2021-09-15 20:15:00 72.8 57.1 56.8 72.8 72.8 8.3 8.3 6.5 159.0 148.5 0.00 0.0000000 83.4 83.9
2021-09-15 20:20:00 72.6 57.8 56.9 72.6 72.6 5.3 8.0 6.3 155.6 150.6 0.00 0.0000000 83.2 83.8
2021-09-15 20:25:00 72.3 58.2 56.8 72.3 72.3 6.3 8.0 6.5 148.6 146.9 0.00 0.0000000 83.0 83.8
2021-09-15 20:30:00 72.1 58.5 56.7 72.1 72.1 4.9 8.5 6.4 153.7 152.8 0.00 0.0000000 82.8 83.6
2021-09-15 20:35:00 72.0 58.6 56.6 72.0 72.0 6.5 9.4 6.9 141.9 151.6 0.00 0.0000000 82.7 83.6
2021-09-15 20:40:00 71.7 58.9 56.6 71.7 71.7 6.9 9.6 6.6 147.9 151.2 0.00 0.0000000 82.4 83.4
2021-09-15 20:45:00 71.5 59.2 56.6 71.5 71.5 5.6 8.8 6.8 155.9 152.1 0.00 0.0000000 82.2 83.3
2021-09-15 20:50:00 71.2 60.2 56.7 71.2 71.2 5.3 8.3 6.7 131.0 150.6 0.00 0.0000000 82.1 83.3
2021-09-15 20:55:00 70.7 60.6 56.5 70.7 70.7 5.1 7.4 5.8 152.5 156.0 0.00 0.0000000 81.9 83.2
2021-09-15 21:00:00 70.5 60.8 56.3 70.5 70.5 6.5 8.5 5.7 155.3 159.3 0.00 0.0000000 81.7 83.0
2021-09-15 21:05:00 70.4 61.0 56.4 70.4 70.4 5.5 8.5 6.1 141.7 154.8 0.00 0.0000000 81.6 83.0
2021-09-15 21:10:00 70.3 61.7 56.5 70.3 70.3 7.6 7.6 6.2 167.0 153.2 0.00 0.0000000 81.4 82.9
2021-09-15 21:15:00 70.0 62.3 56.5 70.0 70.0 9.0 9.0 6.8 168.6 151.6 0.00 0.0000000 81.2 82.8
2021-09-15 21:20:00 70.1 62.0 56.5 70.1 70.1 9.2 9.9 7.8 150.3 152.4 0.00 0.0000000 81.1 82.7
2021-09-15 21:25:00 70.3 61.6 56.4 70.3 70.3 6.9 9.9 8.0 155.1 156.4 0.00 0.0000000 80.9 82.6
2021-09-15 21:30:00 69.7 62.8 56.5 69.7 69.7 6.3 9.9 6.7 164.0 159.7 0.00 0.0000000 80.7 82.5
2021-09-15 21:35:00 69.3 63.7 56.4 69.3 69.3 5.5 7.8 5.9 176.2 158.5 0.00 0.0000000 80.6 82.4
2021-09-15 21:40:00 69.0 64.5 56.6 69.0 69.0 5.6 6.7 5.2 158.7 152.1 0.00 0.0000000 80.4 82.3
2021-09-15 21:45:00 68.8 65.2 56.6 68.8 68.8 5.1 7.1 5.1 173.7 152.7 0.00 0.0000000 80.3 82.2
2021-09-15 21:50:00 68.7 65.1 56.5 68.7 68.7 6.0 7.8 6.2 147.5 152.9 0.00 0.0000000 80.2 82.1
2021-09-15 21:55:00 68.6 65.4 56.5 68.6 68.6 8.5 8.5 6.7 150.8 155.9 0.00 0.0000000 80.0 82.0
2021-09-15 22:00:00 68.8 65.5 56.7 68.8 68.8 5.1 10.3 7.1 156.0 152.0 0.00 0.0000000 79.8 81.9
2021-09-15 22:05:00 68.7 65.4 56.6 68.7 68.7 6.2 9.4 7.5 166.8 157.6 0.00 0.0000000 79.7 81.9
2021-09-15 22:10:00 68.7 65.7 56.8 68.7 68.7 7.8 9.4 6.9 158.9 156.7 0.00 0.0000000 79.6 81.8
2021-09-15 22:15:00 68.6 65.9 56.8 68.6 68.6 6.7 10.5 7.5 168.4 158.8 0.00 0.0000000 79.4 81.6
2021-09-15 22:20:00 68.3 66.4 56.7 68.3 68.3 8.8 8.8 6.8 168.6 152.0 0.00 0.0000000 79.3 81.6
2021-09-15 22:25:00 68.2 67.1 56.9 68.2 68.2 6.7 9.6 6.6 142.2 152.7 0.00 0.0000000 79.2 81.5
2021-09-15 22:30:00 68.2 67.2 56.9 68.2 68.2 8.0 9.2 6.6 152.2 159.5 0.00 0.0000000 79.0 81.4
2021-09-15 22:35:00 68.0 67.8 57.0 68.0 68.0 6.2 9.6 6.5 154.9 160.4 0.00 0.0000000 78.9 81.3
2021-09-15 22:40:00 67.9 68.5 57.1 67.9 67.9 5.6 7.6 6.0 151.0 152.8 0.00 0.0000000 78.8 81.2
2021-09-15 22:45:00 67.9 68.4 57.1 67.9 67.9 5.6 8.1 6.4 138.1 160.1 0.00 0.0000000 78.6 81.1
2021-09-15 22:50:00 67.8 68.8 57.2 67.8 67.8 7.2 8.1 6.2 167.0 160.2 0.00 0.0000000 78.5 81.1
2021-09-15 22:55:00 67.7 68.9 57.2 67.7 67.7 5.5 7.4 5.9 175.2 162.8 0.00 0.0000000 78.4 81.0
2021-09-15 23:00:00 67.8 68.9 57.2 67.8 67.8 7.8 7.8 5.9 163.9 164.5 0.00 0.0000000 78.3 80.9
2021-09-15 23:05:00 67.8 68.9 57.2 67.8 67.8 7.1 8.1 6.5 138.7 160.1 0.00 0.0000000 78.2 80.8
2021-09-15 23:10:00 67.9 69.0 57.3 67.9 67.9 5.5 8.5 6.7 210.4 167.5 0.00 0.0000000 78.0 80.7
2021-09-15 23:15:00 67.9 69.1 57.3 67.9 67.9 6.3 8.0 6.6 157.7 164.3 0.00 0.0000000 77.9 80.6
2021-09-15 23:20:00 67.7 70.0 57.5 67.7 67.7 7.6 8.1 6.3 187.4 169.3 0.00 0.0000000 77.8 80.5
2021-09-15 23:25:00 67.5 70.6 57.6 67.5 67.5 5.8 7.6 6.6 209.1 172.8 0.00 0.0000000 77.7 80.5
2021-09-15 23:30:00 67.2 71.0 57.5 67.2 67.2 6.7 8.1 6.1 180.1 175.8 0.00 0.0000000 77.6 80.4
2021-09-15 23:35:00 67.4 69.7 57.2 67.4 67.4 8.0 9.9 7.9 159.1 179.5 0.00 0.0000000 77.5 80.3
2021-09-15 23:40:00 67.6 69.9 57.5 67.6 67.6 7.8 10.5 8.2 183.9 176.1 0.00 0.0000000 77.4 80.2
2021-09-15 23:45:00 67.6 69.7 57.4 67.6 67.6 8.7 10.5 8.6 184.4 180.3 0.00 0.0000000 77.3 80.2
2021-09-15 23:50:00 67.5 69.9 57.3 67.5 67.5 8.0 11.0 8.5 182.6 177.0 0.00 0.0000000 77.2 80.1
2021-09-15 23:55:00 67.3 70.7 57.5 67.3 67.3 6.0 9.6 7.8 175.8 179.3 0.00 0.0000000 77.1 80.0
2021-09-16 00:00:00 66.8 71.6 57.3 66.8 66.8 7.1 9.0 7.2 161.9 180.1 0.00 0.0000000 77.0 79.9

Data is courtesy of the NM Climate Center. DO NOT USE IN LEGAL PROCEEDINGS.